Time,TemperatureF,DewpointF,PressureIn,WindDirection,WindDirectionDegrees,WindSpeedMPH,WindSpeedGustMPH,Humidity,HourlyPrecipIn,Conditions,Clouds,dailyrainin,SolarRadiationWatts/m^2,SoftwareType,DateUTC
2013-03-03 00:02:00,18.0,12.0,-100.00,NW,309,5.0,6.0,77,0.00,,,0.00,0.000000,,2013-03-03 06:02:00,
2013-03-03 00:32:00,16.0,12.0,-100.00,NW,310,3.0,5.0,84,0.00,,,0.00,0.000000,,2013-03-03 06:32:00,
2013-03-03 00:42:00,16.0,12.0,-100.00,NW,310,3.0,5.0,84,0.00,,,0.00,0.000000,,2013-03-03 06:42:00,
2013-03-03 00:52:00,16.0,12.0,-100.00,NW,310,3.0,5.0,84,0.00,,,0.00,0.000000,,2013-03-03 06:52:00,
2013-03-03 01:01:00,16.0,12.0,-100.00,NW,310,3.0,5.0,84,0.00,,,0.00,0.000000,,2013-03-03 07:01:00,
2013-03-03 01:32:00,16.0,11.0,-100.00,NW,306,4.0,4.0,79,0.00,,,0.00,0.000000,,2013-03-03 07:32:00,
2013-03-03 01:42:00,16.0,11.0,-100.00,NW,306,4.0,4.0,79,0.00,,,0.00,0.000000,,2013-03-03 07:42:00,
2013-03-03 01:52:00,16.0,11.0,-100.00,NW,306,4.0,4.0,79,0.00,,,0.00,0.000000,,2013-03-03 07:52:00,
2013-03-03 02:01:00,16.0,11.0,-100.00,NW,306,4.0,4.0,79,0.00,,,0.00,0.000000,,2013-03-03 08:01:00,
2013-03-03 02:32:00,15.0,11.0,-100.00,WNW,300,4.0,4.0,83,0.00,,,0.00,0.000000,,2013-03-03 08:32:00,
2013-03-03 02:42:00,15.0,11.0,-100.00,WNW,300,4.0,4.0,83,0.00,,,0.00,0.000000,,2013-03-03 08:42:00,
2013-03-03 02:54:00,15.0,11.0,-100.00,WNW,300,4.0,4.0,83,0.00,,,0.00,0.000000,,2013-03-03 08:54:00,
2013-03-03 03:01:00,15.0,11.0,-100.00,WNW,300,4.0,4.0,83,0.00,,,0.00,0.000000,,2013-03-03 09:01:00,
2013-03-03 03:32:00,15.0,11.0,-100.00,WNW,303,4.0,5.0,82,0.00,,,0.00,0.000000,,2013-03-03 09:32:00,
2013-03-03 03:42:00,15.0,11.0,-100.00,WNW,303,4.0,5.0,82,0.00,,,0.00,0.000000,,2013-03-03 09:42:00,
2013-03-03 03:52:00,15.0,11.0,-100.00,WNW,303,4.0,5.0,82,0.00,,,0.00,0.000000,,2013-03-03 09:52:00,
2013-03-03 04:01:00,15.0,11.0,-100.00,WNW,303,4.0,5.0,82,0.00,,,0.00,0.000000,,2013-03-03 10:01:00,
2013-03-03 04:32:00,14.0,10.0,-100.00,NW,304,2.0,2.0,84,0.00,,,0.00,0.000000,,2013-03-03 10:32:00,
2013-03-03 04:42:00,14.0,10.0,-100.00,NW,304,2.0,2.0,84,0.00,,,0.00,0.000000,,2013-03-03 10:42:00,
2013-03-03 04:52:00,14.0,10.0,-100.00,NW,304,2.0,2.0,84,0.00,,,0.00,0.000000,,2013-03-03 10:52:00,
2013-03-03 05:01:00,14.0,10.0,-100.00,NW,304,2.0,2.0,84,0.00,,,0.00,0.000000,,2013-03-03 11:01:00,
2013-03-03 05:32:00,14.0,10.0,-100.00,NW,312,3.0,4.0,84,0.00,,,0.00,0.000000,,2013-03-03 11:32:00,
2013-03-03 05:42:00,14.0,10.0,-100.00,NW,312,3.0,4.0,84,0.00,,,0.00,0.000000,,2013-03-03 11:42:00,
2013-03-03 05:52:00,14.0,10.0,-100.00,NW,312,3.0,4.0,84,0.00,,,0.00,0.000000,,2013-03-03 11:52:00,
2013-03-03 06:01:00,14.0,10.0,-100.00,NW,312,3.0,4.0,84,0.00,,,0.00,0.000000,,2013-03-03 12:01:00,
2013-03-03 06:32:00,14.0,10.0,-100.00,NW,312,3.0,3.0,85,0.00,,,0.00,0.000000,,2013-03-03 12:32:00,
2013-03-03 06:43:00,14.0,10.0,-100.00,NW,312,3.0,3.0,85,0.00,,,0.00,0.000000,,2013-03-03 12:43:00,
2013-03-03 06:53:00,14.0,10.0,-100.00,NW,312,3.0,3.0,85,0.00,,,0.00,0.000000,,2013-03-03 12:53:00,
2013-03-03 07:01:00,14.0,10.0,-100.00,NW,312,3.0,3.0,85,0.00,,,0.00,0.000000,,2013-03-03 13:01:00,
2013-03-03 07:32:00,16.0,11.0,-100.00,NW,308,2.0,3.0,82,0.00,,,0.00,21.000000,,2013-03-03 13:32:00,
2013-03-03 07:42:00,16.0,11.0,-100.00,NW,308,2.0,3.0,82,0.00,,,0.00,21.000000,,2013-03-03 13:42:00,
2013-03-03 07:52:00,16.0,11.0,-100.00,NW,308,2.0,3.0,82,0.00,,,0.00,21.000000,,2013-03-03 13:52:00,
2013-03-03 08:02:00,16.0,11.0,-100.00,NW,308,2.0,3.0,82,0.00,,,0.00,21.000000,,2013-03-03 14:02:00,
2013-03-03 08:32:00,20.0,13.0,-100.00,NW,321,4.0,6.0,73,0.00,,,0.00,182.000000,,2013-03-03 14:32:00,
2013-03-03 08:42:00,20.0,13.0,-100.00,NW,321,4.0,6.0,73,0.00,,,0.00,182.000000,,2013-03-03 14:42:00,
2013-03-03 08:52:00,20.0,13.0,-100.00,NW,321,4.0,6.0,73,0.00,,,0.00,182.000000,,2013-03-03 14:52:00,
2013-03-03 09:01:00,20.0,13.0,-100.00,NW,321,4.0,6.0,73,0.00,,,0.00,182.000000,,2013-03-03 15:01:00,
2013-03-03 09:32:00,26.0,14.0,-100.00,NNW,343,6.0,7.0,60,0.00,,,0.00,378.000000,,2013-03-03 15:32:00,
2013-03-03 09:42:00,26.0,14.0,-100.00,NNW,343,6.0,7.0,60,0.00,,,0.00,378.000000,,2013-03-03 15:42:00,
2013-03-03 09:52:00,26.0,14.0,-100.00,NNW,343,6.0,7.0,60,0.00,,,0.00,378.000000,,2013-03-03 15:52:00,
2013-03-03 10:01:00,26.0,14.0,-100.00,NNW,343,6.0,7.0,60,0.00,,,0.00,378.000000,,2013-03-03 16:01:00,
2013-03-03 10:32:00,30.0,13.0,-100.00,NNW,345,5.0,8.0,48,0.00,,,0.00,567.000000,,2013-03-03 16:32:00,
2013-03-03 10:42:00,30.0,13.0,-100.00,NNW,345,5.0,8.0,48,0.00,,,0.00,567.000000,,2013-03-03 16:42:00,
2013-03-03 10:52:00,30.0,13.0,-100.00,NNW,345,5.0,8.0,48,0.00,,,0.00,567.000000,,2013-03-03 16:52:00,
2013-03-03 11:01:00,30.0,13.0,-100.00,NNW,345,5.0,8.0,48,0.00,,,0.00,567.000000,,2013-03-03 17:01:00,
2013-03-03 11:32:00,32.0,12.0,-100.00,NW,312,6.0,9.0,43,0.00,,,0.00,704.000000,,2013-03-03 17:32:00,
2013-03-03 11:42:00,32.0,12.0,-100.00,NW,312,6.0,9.0,43,0.00,,,0.00,704.000000,,2013-03-03 17:42:00,
2013-03-03 11:52:00,32.0,12.0,-100.00,NW,312,6.0,9.0,43,0.00,,,0.00,704.000000,,2013-03-03 17:52:00,
2013-03-03 12:01:00,32.0,12.0,-100.00,NW,312,6.0,9.0,43,0.00,,,0.00,704.000000,,2013-03-03 18:01:00,
2013-03-03 12:32:00,33.0,12.0,-100.00,NW,326,6.0,9.0,41,0.00,,,0.00,784.000000,,2013-03-03 18:32:00,
2013-03-03 12:42:00,33.0,12.0,-100.00,NW,326,6.0,9.0,41,0.00,,,0.00,784.000000,,2013-03-03 18:42:00,
2013-03-03 12:52:00,33.0,12.0,-100.00,NW,326,6.0,9.0,41,0.00,,,0.00,784.000000,,2013-03-03 18:52:00,
2013-03-03 13:02:00,33.0,12.0,-100.00,NW,326,6.0,9.0,41,0.00,,,0.00,784.000000,,2013-03-03 19:02:00,
2013-03-03 13:32:00,34.0,12.0,-100.00,WNW,298,7.0,14.0,39,0.00,,,0.00,798.000000,,2013-03-03 19:32:00,
2013-03-03 13:42:00,34.0,12.0,-100.00,WNW,298,7.0,14.0,39,0.00,,,0.00,798.000000,,2013-03-03 19:42:00,
2013-03-03 13:52:00,34.0,12.0,-100.00,WNW,298,7.0,14.0,39,0.00,,,0.00,798.000000,,2013-03-03 19:52:00,
2013-03-03 14:01:00,34.0,12.0,-100.00,WNW,298,7.0,14.0,39,0.00,,,0.00,798.000000,,2013-03-03 20:01:00,
2013-03-03 14:32:00,34.0,12.0,-100.00,NW,312,6.0,12.0,39,0.00,,,0.00,740.000000,,2013-03-03 20:32:00,
2013-03-03 14:43:00,34.0,12.0,-100.00,NW,312,6.0,12.0,39,0.00,,,0.00,740.000000,,2013-03-03 20:43:00,
2013-03-03 14:53:00,34.0,12.0,-100.00,NW,312,6.0,12.0,39,0.00,,,0.00,740.000000,,2013-03-03 20:53:00,
2013-03-03 15:02:00,34.0,12.0,-100.00,NW,312,6.0,12.0,39,0.00,,,0.00,740.000000,,2013-03-03 21:02:00,
2013-03-03 15:32:00,35.0,12.0,-100.00,NW,317,6.0,10.0,38,0.00,,,0.00,623.000000,,2013-03-03 21:32:00,
2013-03-03 15:42:00,35.0,12.0,-100.00,NW,317,6.0,10.0,38,0.00,,,0.00,623.000000,,2013-03-03 21:42:00,
2013-03-03 15:52:00,35.0,12.0,-100.00,NW,317,6.0,10.0,38,0.00,,,0.00,623.000000,,2013-03-03 21:52:00,
2013-03-03 16:01:00,35.0,12.0,-100.00,NW,317,6.0,10.0,38,0.00,,,0.00,623.000000,,2013-03-03 22:01:00,
2013-03-03 16:32:00,34.0,11.0,-100.00,NNW,331,5.0,8.0,37,0.00,,,0.00,451.000000,,2013-03-03 22:32:00,
2013-03-03 16:42:00,34.0,11.0,-100.00,NNW,331,5.0,8.0,37,0.00,,,0.00,451.000000,,2013-03-03 22:42:00,
2013-03-03 16:52:00,34.0,11.0,-100.00,NNW,331,5.0,8.0,37,0.00,,,0.00,451.000000,,2013-03-03 22:52:00,
2013-03-03 17:01:00,34.0,11.0,-100.00,NNW,331,5.0,8.0,37,0.00,,,0.00,451.000000,,2013-03-03 23:01:00,
2013-03-03 17:32:00,33.0,11.0,-100.00,NNW,329,4.0,8.0,39,0.00,,,0.00,243.000000,,2013-03-03 23:32:00,
2013-03-03 17:42:00,33.0,11.0,-100.00,NNW,329,4.0,8.0,39,0.00,,,0.00,243.000000,,2013-03-03 23:42:00,
2013-03-03 17:52:00,33.0,11.0,-100.00,NNW,329,4.0,8.0,39,0.00,,,0.00,243.000000,,2013-03-03 23:52:00,
2013-03-03 18:01:00,33.0,11.0,-100.00,NNW,329,4.0,8.0,39,0.00,,,0.00,243.000000,,2013-03-04 00:01:00,
2013-03-03 18:32:00,27.0,12.0,-100.00,NW,309,3.0,4.0,53,0.00,,,0.00,36.000000,,2013-03-04 00:32:00,
2013-03-03 18:42:00,27.0,12.0,-100.00,NW,309,3.0,4.0,53,0.00,,,0.00,36.000000,,2013-03-04 00:42:00,
2013-03-03 18:52:00,27.0,12.0,-100.00,NW,309,3.0,4.0,53,0.00,,,0.00,36.000000,,2013-03-04 00:52:00,
2013-03-03 19:01:00,27.0,12.0,-100.00,NW,309,3.0,4.0,53,0.00,,,0.00,36.000000,,2013-03-04 01:01:00,
2013-03-03 19:32:00,26.0,12.0,-100.00,NW,312,3.0,3.0,55,0.00,,,0.00,0.000000,,2013-03-04 01:32:00,
2013-03-03 19:42:00,26.0,12.0,-100.00,NW,312,3.0,3.0,55,0.00,,,0.00,0.000000,,2013-03-04 01:42:00,
2013-03-03 19:52:00,26.0,12.0,-100.00,NW,312,3.0,3.0,55,0.00,,,0.00,0.000000,,2013-03-04 01:52:00,
2013-03-03 20:01:00,26.0,12.0,-100.00,NW,312,3.0,3.0,55,0.00,,,0.00,0.000000,,2013-03-04 02:01:00,
2013-03-03 20:32:00,22.0,15.0,-100.00,NNE,29,2.0,3.0,74,0.00,,,0.00,0.000000,,2013-03-04 02:32:00,
2013-03-03 20:42:00,22.0,15.0,-100.00,NNE,29,2.0,3.0,74,0.00,,,0.00,0.000000,,2013-03-04 02:42:00,
2013-03-03 20:52:00,22.0,15.0,-100.00,NNE,29,2.0,3.0,74,0.00,,,0.00,0.000000,,2013-03-04 02:52:00,
2013-03-03 21:02:00,22.0,15.0,-100.00,NNE,29,2.0,3.0,74,0.00,,,0.00,0.000000,,2013-03-04 03:02:00,
2013-03-03 21:32:00,21.0,16.0,-100.00,East,92,2.0,3.0,82,0.00,,,0.00,0.000000,,2013-03-04 03:32:00,
2013-03-03 21:42:00,21.0,16.0,-100.00,East,92,2.0,3.0,82,0.00,,,0.00,0.000000,,2013-03-04 03:42:00,
2013-03-03 21:52:00,21.0,16.0,-100.00,East,92,2.0,3.0,82,0.00,,,0.00,0.000000,,2013-03-04 03:52:00,
2013-03-03 22:01:00,21.0,16.0,-100.00,East,92,2.0,3.0,82,0.00,,,0.00,0.000000,,2013-03-04 04:01:00,
2013-03-03 22:32:00,21.0,14.0,-100.00,East,89,2.0,2.0,75,0.00,,,0.00,0.000000,,2013-03-04 04:32:00,
2013-03-03 22:42:00,21.0,14.0,-100.00,East,89,2.0,2.0,75,0.00,,,0.00,0.000000,,2013-03-04 04:42:00,
2013-03-03 22:52:00,21.0,14.0,-100.00,East,89,2.0,2.0,75,0.00,,,0.00,0.000000,,2013-03-04 04:52:00,
2013-03-03 23:01:00,21.0,14.0,-100.00,East,89,2.0,2.0,75,0.00,,,0.00,0.000000,,2013-03-04 05:01:00,
2013-03-03 23:32:00,20.0,16.0,-100.00,ESE,103,2.0,3.0,85,0.00,,,0.00,0.000000,,2013-03-04 05:32:00,
2013-03-03 23:43:00,20.0,16.0,-100.00,ESE,103,2.0,3.0,85,0.00,,,0.00,0.000000,,2013-03-04 05:43:00,
2013-03-03 23:52:00,20.0,16.0,-100.00,ESE,103,2.0,3.0,85,0.00,,,0.00,0.000000,,2013-03-04 05:52:00,